createdAt,value
2019-03-10T00:01:35.947Z,19.90
2019-03-10T00:04:04.983Z,17.53
2019-03-10T00:06:34.952Z,18.30
2019-03-10T00:09:04.938Z,18.07
2019-03-10T00:11:33.942Z,22.87
2019-03-10T00:14:02.907Z,14.87
2019-03-10T00:16:31.962Z,17.53
2019-03-10T00:19:01.022Z,15.97
2019-03-10T00:21:30.031Z,14.30
2019-03-10T00:23:59.037Z,16.77
2019-03-10T00:26:28.083Z,16.23
2019-03-10T00:28:57.198Z,17.57
2019-03-10T00:31:26.278Z,18.80
2019-03-10T00:33:55.304Z,12.03
2019-03-10T00:36:24.333Z,11.43
2019-03-10T00:39:37.958Z,13.97
2019-03-10T00:42:52.406Z,13.93
2019-03-10T00:46:20.542Z,18.77
2019-03-10T00:49:42.725Z,13.87
2019-03-10T00:52:18.839Z,19.23
2019-03-10T00:54:47.980Z,16.53
2019-03-10T00:57:17.065Z,16.80
2019-03-10T00:59:46.143Z,18.87
2019-03-10T01:02:15.211Z,17.60
2019-03-10T01:04:44.247Z,15.83
2019-03-10T01:07:32.574Z,14.23
2019-03-10T01:10:01.649Z,13.20
2019-03-10T01:12:30.710Z,14.10
2019-03-10T01:14:59.818Z,15.50
2019-03-10T01:17:28.869Z,19.83
2019-03-10T01:19:57.885Z,12.20
2019-03-10T01:22:26.993Z,10.53
2019-03-10T01:24:56.086Z,15.57
2019-03-10T01:27:25.090Z,16.07
2019-03-10T01:29:54.128Z,19.47
2019-03-10T01:33:02.772Z,12.33
2019-03-10T01:35:38.013Z,12.40
2019-03-10T01:38:07.037Z,13.83
2019-03-10T01:40:36.050Z,13.53
2019-03-10T01:43:05.190Z,16.17
2019-03-10T01:45:34.178Z,15.80
2019-03-10T01:48:03.172Z,16.43
2019-03-10T01:50:32.307Z,13.93
2019-03-10T01:53:01.473Z,10.50
2019-03-10T01:55:30.474Z,12.23
2019-03-10T01:57:59.479Z,12.03
2019-03-10T02:00:28.567Z,16.37
2019-03-10T02:02:57.669Z,18.50
2019-03-10T02:05:26.750Z,14.97
2019-03-10T02:07:55.814Z,12.43
2019-03-10T02:10:24.736Z,10.27
2019-03-10T02:12:53.739Z,12.57
2019-03-10T02:15:22.759Z,12.13
2019-03-10T02:17:51.833Z,10.77
2019-03-10T02:20:20.978Z,10.03
2019-03-10T02:22:50.138Z,11.03
2019-03-10T02:25:19.208Z,11.43
2019-03-10T02:27:48.279Z,13.30
2019-03-10T02:30:18.561Z,12.10
2019-03-10T02:32:47.648Z,12.40
2019-03-10T02:35:16.796Z,7.23
2019-03-10T02:37:45.763Z,12.40
2019-03-10T02:40:14.779Z,18.53
2019-03-10T02:42:43.741Z,18.30
2019-03-10T02:45:12.808Z,10.63
2019-03-10T02:47:41.910Z,14.23
2019-03-10T02:50:10.965Z,13.30
2019-03-10T02:52:40.043Z,11.43
2019-03-10T02:55:09.159Z,11.67
2019-03-10T02:57:38.223Z,17.33
2019-03-10T03:00:08.682Z,15.70
2019-03-10T03:02:37.781Z,11.43
2019-03-10T03:05:07.381Z,11.23
2019-03-10T03:07:36.519Z,9.30
2019-03-10T03:10:05.799Z,13.83
2019-03-10T03:12:35.565Z,12.20
2019-03-10T03:15:04.928Z,17.67
2019-03-10T03:17:33.994Z,10.63
2019-03-10T03:20:15.696Z,11.63
2019-03-10T03:23:20.849Z,6.13
2019-03-10T03:25:59.807Z,10.57
2019-03-10T03:28:48.988Z,13.10
2019-03-10T03:31:17.989Z,14.77
2019-03-10T03:33:47.404Z,8.27
2019-03-10T03:36:23.652Z,11.40
2019-03-10T03:38:56.789Z,8.90
2019-03-10T03:41:27.154Z,7.10
2019-03-10T03:43:56.128Z,12.13
2019-03-10T03:46:25.123Z,12.13
2019-03-10T03:48:54.175Z,14.20
2019-03-10T03:51:23.450Z,8.93
2019-03-10T03:53:52.509Z,8.20
2019-03-10T03:56:21.553Z,11.00
2019-03-10T03:58:50.575Z,12.73
2019-03-10T04:01:32.088Z,11.77
2019-03-10T04:04:01.090Z,9.00
2019-03-10T04:06:30.132Z,13.93
2019-03-10T04:08:59.205Z,8.23
2019-03-10T04:11:28.347Z,10.70
2019-03-10T04:13:57.484Z,8.80
2019-03-10T04:16:26.573Z,10.80
2019-03-10T04:18:55.621Z,9.13
2019-03-10T04:21:24.623Z,8.53
2019-03-10T04:23:53.778Z,10.97
2019-03-10T04:26:22.946Z,8.27
2019-03-10T04:28:51.958Z,9.73
2019-03-10T04:31:20.974Z,12.90
2019-03-10T04:33:50.055Z,10.63
2019-03-10T04:36:19.134Z,10.53
2019-03-10T04:38:48.174Z,6.63
2019-03-10T04:41:17.235Z,11.10
2019-03-10T04:43:46.306Z,13.07
2019-03-10T04:46:15.364Z,12.93
2019-03-10T04:48:44.437Z,14.33
2019-03-10T04:51:13.434Z,11.77
2019-03-10T04:53:42.417Z,13.63
2019-03-10T04:56:21.781Z,14.67
2019-03-10T04:58:52.230Z,13.10
2019-03-10T05:01:22.073Z,15.83
2019-03-10T05:03:51.235Z,15.60
2019-03-10T05:06:20.294Z,13.83
2019-03-10T05:08:49.382Z,19.73
2019-03-10T05:11:18.410Z,11.43
2019-03-10T05:13:47.421Z,11.43
2019-03-10T05:16:16.439Z,13.23
2019-03-10T05:18:45.607Z,10.80
2019-03-10T05:21:14.686Z,18.93
2019-03-10T05:23:44.668Z,18.87
2019-03-10T05:26:14.990Z,15.67
2019-03-10T05:28:45.507Z,13.43
2019-03-10T05:31:14.589Z,19.47
2019-03-10T05:33:43.678Z,16.10
2019-03-10T05:36:15.608Z,17.90
2019-03-10T05:38:44.621Z,14.43
2019-03-10T05:41:13.622Z,12.10
2019-03-10T05:43:42.663Z,12.50
2019-03-10T05:46:11.789Z,13.97
2019-03-10T05:48:40.890Z,16.27
2019-03-10T05:51:09.958Z,10.63
2019-03-10T05:53:38.983Z,13.43
2019-03-10T05:56:08.035Z,14.00
2019-03-10T05:58:56.280Z,11.63
2019-03-10T06:01:25.407Z,14.30
2019-03-10T06:03:54.463Z,16.07
2019-03-10T06:06:23.511Z,13.33
2019-03-10T06:08:54.105Z,13.87
2019-03-10T06:11:23.122Z,11.10
2019-03-10T06:13:52.155Z,12.40
2019-03-10T06:16:21.217Z,15.23
2019-03-10T06:18:50.250Z,13.27
2019-03-10T06:21:19.274Z,14.10
2019-03-10T06:23:48.310Z,13.80
2019-03-10T06:26:17.335Z,7.90
2019-03-10T06:28:46.406Z,14.73
2019-03-10T06:31:15.612Z,10.67
2019-03-10T06:33:44.637Z,13.93
2019-03-10T06:36:13.710Z,8.60
2019-03-10T06:38:42.777Z,13.90
2019-03-10T06:41:11.875Z,10.03
2019-03-10T06:43:40.931Z,12.70
2019-03-10T06:46:10.059Z,13.53
2019-03-10T06:48:39.175Z,10.27
2019-03-10T06:51:08.210Z,10.97
2019-03-10T06:53:37.289Z,11.87
2019-03-10T06:56:06.409Z,11.97
2019-03-10T06:58:35.488Z,16.43
2019-03-10T07:01:04.525Z,12.00
2019-03-10T07:03:33.606Z,12.53
2019-03-10T07:06:02.668Z,12.10
2019-03-10T07:08:32.655Z,11.97
2019-03-10T07:11:02.105Z,15.13
2019-03-10T07:13:31.133Z,6.40
2019-03-10T07:16:00.127Z,10.17
2019-03-10T07:18:29.184Z,10.17
2019-03-10T07:20:58.283Z,9.97
2019-03-10T07:23:27.410Z,9.97
2019-03-10T07:26:05.931Z,12.80
2019-03-10T07:28:55.273Z,9.67
2019-03-10T07:31:28.311Z,12.50
2019-03-10T07:34:16.398Z,10.13
2019-03-10T07:37:03.018Z,8.13
2019-03-10T07:39:45.481Z,9.40
2019-03-10T07:42:29.885Z,6.73
2019-03-10T07:45:07.927Z,9.93
2019-03-10T07:47:48.410Z,11.27
2019-03-10T07:50:33.288Z,9.87
2019-03-10T07:53:25.722Z,9.80
2019-03-10T07:56:12.443Z,14.37
2019-03-10T07:58:56.242Z,9.23
2019-03-10T08:02:02.593Z,10.07
2019-03-10T08:05:05.648Z,10.27
2019-03-10T08:07:51.562Z,11.70
2019-03-10T08:10:51.777Z,13.47
2019-03-10T08:13:51.706Z,13.20
2019-03-10T08:16:46.385Z,11.73
2019-03-10T08:19:27.001Z,7.30
2019-03-10T08:22:17.935Z,8.67
2019-03-10T08:25:03.470Z,10.63
2019-03-10T08:27:40.336Z,7.87
2019-03-10T08:30:24.737Z,8.77
2019-03-10T08:33:08.507Z,7.10
2019-03-10T08:35:50.699Z,9.47
2019-03-10T08:38:28.543Z,4.77
2019-03-10T08:41:25.657Z,10.73
2019-03-10T08:44:13.359Z,9.33
2019-03-10T08:46:57.795Z,6.53
2019-03-10T08:49:57.843Z,10.03
2019-03-10T08:52:42.675Z,6.13
2019-03-10T08:55:29.589Z,7.17
2019-03-10T08:58:12.939Z,11.30
2019-03-10T09:00:59.753Z,7.90
2019-03-10T09:03:55.024Z,8.13
2019-03-10T09:06:49.192Z,8.43
2019-03-10T09:09:34.828Z,6.77
2019-03-10T09:12:25.696Z,6.57
2019-03-10T09:15:13.780Z,6.00
2019-03-10T09:18:01.898Z,5.60
2019-03-10T09:20:48.754Z,4.17
2019-03-10T09:23:39.924Z,7.80
2019-03-10T09:26:33.959Z,2.30
2019-03-10T09:29:20.642Z,5.50
2019-03-10T09:32:11.510Z,4.73
2019-03-10T09:34:58.774Z,3.83
2019-03-10T09:37:35.739Z,5.50
2019-03-10T09:40:12.464Z,5.43
2019-03-10T09:42:57.173Z,4.17
2019-03-10T09:45:35.620Z,4.17
2019-03-10T09:48:29.678Z,3.63
2019-03-10T09:51:15.110Z,2.73
2019-03-10T09:54:01.927Z,4.60
2019-03-10T09:56:40.526Z,4.93
2019-03-10T09:59:28.642Z,4.13
2019-03-10T10:02:06.332Z,4.27
2019-03-10T10:04:53.299Z,5.77
2019-03-10T10:07:39.934Z,2.43
2019-03-10T10:10:24.665Z,4.50
2019-03-10T10:13:17.761Z,4.03
2019-03-10T10:16:01.947Z,3.33
2019-03-10T10:18:46.559Z,1.83
2019-03-10T10:21:37.170Z,1.70
2019-03-10T10:24:18.771Z,2.43
2019-03-10T10:26:59.139Z,2.23
2019-03-10T10:29:43.231Z,1.97
2019-03-10T10:32:37.354Z,2.50
2019-03-10T10:35:25.572Z,1.93
2019-03-10T10:38:18.590Z,3.33
2019-03-10T10:41:01.530Z,2.47
2019-03-10T10:43:58.836Z,1.67
2019-03-10T10:46:59.030Z,3.00
2019-03-10T10:49:45.797Z,2.87
2019-03-10T10:52:36.880Z,3.57
2019-03-10T10:55:12.884Z,2.13
2019-03-10T10:57:48.142Z,3.37
2019-03-10T11:00:25.775Z,1.73
2019-03-10T11:03:08.255Z,1.57
2019-03-10T11:05:54.108Z,1.93
2019-03-10T11:08:41.514Z,1.87
2019-03-10T11:11:27.911Z,2.27
2019-03-10T11:14:21.843Z,2.07
2019-03-10T11:17:17.293Z,2.10
2019-03-10T11:20:08.287Z,2.23
2019-03-10T11:22:48.158Z,2.70
2019-03-10T11:25:45.051Z,2.37
2019-03-10T11:28:31.630Z,3.67
2019-03-10T11:31:08.806Z,3.77
2019-03-10T11:33:48.813Z,3.73
2019-03-10T11:36:42.563Z,9.03
2019-03-10T11:39:28.958Z,5.17
2019-03-10T11:42:05.670Z,10.60
2019-03-10T11:44:49.057Z,23.80
2019-03-10T11:47:38.417Z,27.13
2019-03-10T11:50:39.184Z,31.67
2019-03-10T11:53:33.863Z,41.10
2019-03-10T11:56:27.782Z,33.17
2019-03-10T11:59:24.747Z,47.37
2019-03-10T12:01:59.551Z,34.47
2019-03-10T12:04:56.474Z,32.77
2019-03-10T12:07:56.652Z,25.00
2019-03-10T12:10:25.746Z,35.27
2019-03-10T12:12:54.748Z,42.27
2019-03-10T12:15:23.914Z,36.13
2019-03-10T12:17:52.957Z,29.60
2019-03-10T12:20:22.017Z,34.60
2019-03-10T12:22:51.102Z,32.40
2019-03-10T12:25:20.189Z,26.63
2019-03-10T12:27:49.163Z,33.07
2019-03-10T12:30:18.221Z,25.40
2019-03-10T12:32:47.401Z,24.83
2019-03-10T12:35:16.456Z,18.53
2019-03-10T12:37:45.536Z,22.20
2019-03-10T12:40:14.637Z,14.13
2019-03-10T12:42:43.665Z,16.93
2019-03-10T12:45:12.769Z,22.30
2019-03-10T12:47:41.881Z,19.87
2019-03-10T12:50:10.998Z,15.13
2019-03-10T12:52:40.059Z,21.30
2019-03-10T12:55:09.138Z,17.67
2019-03-10T12:57:38.444Z,12.63
2019-03-10T13:00:08.247Z,15.77
2019-03-10T13:02:37.422Z,16.67
2019-03-10T13:05:07.876Z,14.53
2019-03-10T13:07:37.057Z,24.27
2019-03-10T13:10:06.145Z,17.37
2019-03-10T13:12:35.282Z,27.23
2019-03-10T13:15:04.378Z,17.57
2019-03-10T13:17:52.601Z,19.03
2019-03-10T13:20:28.319Z,14.97
2019-03-10T13:22:52.343Z,17.10
2019-03-10T13:25:21.362Z,20.30
2019-03-10T13:27:51.591Z,9.77
2019-03-10T13:30:20.665Z,11.27
2019-03-10T13:32:49.750Z,7.97
2019-03-10T13:35:18.814Z,5.97
2019-03-10T13:37:47.806Z,5.03
2019-03-10T13:40:16.906Z,1.97
2019-03-10T13:42:45.946Z,2.13
2019-03-10T13:45:15.018Z,0.83
2019-03-10T13:47:44.074Z,0.60
2019-03-10T13:50:13.114Z,2.37
2019-03-10T13:52:42.206Z,0.83
2019-03-10T13:55:11.248Z,0.67
2019-03-10T13:57:45.409Z,0.70
2019-03-10T14:00:15.192Z,0.90
2019-03-10T14:02:44.261Z,0.60
2019-03-10T14:05:13.350Z,0.93
2019-03-10T14:07:43.857Z,0.97
2019-03-10T14:10:12.959Z,0.50
2019-03-10T14:13:05.186Z,0.73
2019-03-10T14:15:34.333Z,0.70
2019-03-10T14:18:03.395Z,1.13
2019-03-10T14:20:32.459Z,0.60
2019-03-10T14:23:01.955Z,0.73
2019-03-10T14:25:31.014Z,0.57
2019-03-10T14:28:00.878Z,0.47
2019-03-10T14:30:29.932Z,0.70
2019-03-10T14:32:58.972Z,1.23
2019-03-10T14:35:48.178Z,1.37
2019-03-10T14:38:17.652Z,1.53
2019-03-10T14:40:48.153Z,1.30
2019-03-10T14:43:18.327Z,1.53
2019-03-10T14:45:47.380Z,1.13
2019-03-10T14:48:16.406Z,2.00
2019-03-10T14:50:46.113Z,0.80
2019-03-10T14:53:15.303Z,2.17
2019-03-10T14:55:44.430Z,0.40
2019-03-10T14:58:13.505Z,1.47
2019-03-10T15:00:42.658Z,1.40
2019-03-10T15:03:30.830Z,4.03
2019-03-10T15:05:59.846Z,2.43
2019-03-10T15:08:28.933Z,2.47
2019-03-10T15:10:58.032Z,0.73
2019-03-10T15:13:27.654Z,2.63
2019-03-10T15:15:56.811Z,2.37
2019-03-10T15:18:25.850Z,2.43
2019-03-10T15:20:55.001Z,1.50
2019-03-10T15:23:35.651Z,2.97
2019-03-10T15:26:05.204Z,0.63
2019-03-10T15:28:40.429Z,1.57
2019-03-10T15:31:09.570Z,2.30
2019-03-10T15:33:38.596Z,3.73
2019-03-10T15:36:07.631Z,2.70
2019-03-10T15:38:36.827Z,2.60
2019-03-10T15:41:05.945Z,0.40
2019-03-10T15:43:34.981Z,2.53
2019-03-10T15:46:04.081Z,1.00
2019-03-10T15:48:33.104Z,2.50
2019-03-10T15:51:02.109Z,1.97
2019-03-10T15:53:31.857Z,4.37
2019-03-10T15:56:00.832Z,5.47
2019-03-10T15:58:29.862Z,2.47
2019-03-10T16:00:58.982Z,4.47
2019-03-10T16:03:28.079Z,3.07
2019-03-10T16:05:57.539Z,0.77
2019-03-10T16:08:26.610Z,4.00
2019-03-10T16:10:55.734Z,1.80
2019-03-10T16:13:24.824Z,1.77
2019-03-10T16:15:53.923Z,3.30
2019-03-10T16:18:23.071Z,2.10
2019-03-10T16:20:52.333Z,2.30
2019-03-10T16:23:21.760Z,1.40
2019-03-10T16:25:51.150Z,2.43
2019-03-10T16:28:20.300Z,2.57
2019-03-10T16:30:49.541Z,1.53
2019-03-10T16:33:18.995Z,2.43
2019-03-10T16:35:48.304Z,2.20
2019-03-10T16:38:17.440Z,0.80
2019-03-10T16:40:46.609Z,2.53
2019-03-10T16:43:15.893Z,2.40
2019-03-10T16:45:45.609Z,2.03
2019-03-10T16:48:14.837Z,1.47
2019-03-10T16:50:43.861Z,1.27
2019-03-10T16:53:12.926Z,0.47
2019-03-10T16:55:42.060Z,1.07
2019-03-10T16:58:11.176Z,2.03
2019-03-10T17:00:40.323Z,2.33
2019-03-10T17:03:09.600Z,0.57
2019-03-10T17:05:38.721Z,2.53
2019-03-10T17:08:07.753Z,1.90
2019-03-10T17:10:36.847Z,1.60
2019-03-10T17:13:05.929Z,1.93
2019-03-10T17:15:35.119Z,1.33
2019-03-10T17:18:04.238Z,2.37
2019-03-10T17:20:33.264Z,3.03
2019-03-10T17:23:02.237Z,4.90
2019-03-10T17:25:31.335Z,2.30
2019-03-10T17:28:19.573Z,3.40
2019-03-10T17:30:48.597Z,3.93
2019-03-10T17:33:17.625Z,7.90
2019-03-10T17:35:46.697Z,4.90
2019-03-10T17:38:15.683Z,6.70
2019-03-10T17:40:44.809Z,7.43
2019-03-10T17:43:13.865Z,5.20
2019-03-10T17:45:42.989Z,6.70
2019-03-10T17:48:13.131Z,7.10
2019-03-10T17:50:42.349Z,7.80
2019-03-10T17:53:11.436Z,5.73
2019-03-10T17:55:40.474Z,4.43
2019-03-10T17:58:09.544Z,8.97
2019-03-10T18:00:39.186Z,6.27
2019-03-10T18:03:08.249Z,4.77
2019-03-10T18:05:37.334Z,4.40
2019-03-10T18:08:06.406Z,5.80
2019-03-10T18:10:35.427Z,10.20
2019-03-10T18:13:04.432Z,10.43
2019-03-10T18:15:45.863Z,5.00
2019-03-10T18:18:14.888Z,8.20
2019-03-10T18:20:43.905Z,7.17
2019-03-10T18:23:13.064Z,12.00
2019-03-10T18:25:42.135Z,9.60
2019-03-10T18:28:11.302Z,7.30
2019-03-10T18:30:40.320Z,7.20
2019-03-10T18:33:09.370Z,6.53
2019-03-10T18:35:38.498Z,11.33
2019-03-10T18:38:07.509Z,10.40
2019-03-10T18:40:36.669Z,5.13
2019-03-10T18:43:05.646Z,1.97
2019-03-10T18:45:34.746Z,5.20
2019-03-10T18:48:03.767Z,2.60
2019-03-10T18:50:32.900Z,1.13
2019-03-10T18:53:01.964Z,3.60
2019-03-10T18:55:30.982Z,3.07
2019-03-10T18:58:00.100Z,3.10
2019-03-10T19:00:29.191Z,5.00
2019-03-10T19:02:58.278Z,2.93
2019-03-10T19:05:46.637Z,9.50
2019-03-10T19:08:15.681Z,9.67
2019-03-10T19:10:44.765Z,7.63
2019-03-10T19:13:13.952Z,7.43
2019-03-10T19:15:43.089Z,17.47
2019-03-10T19:18:12.131Z,8.23
2019-03-10T19:20:41.305Z,12.50
2019-03-10T19:23:10.373Z,9.53
2019-03-10T19:25:58.737Z,7.70
2019-03-10T19:28:27.872Z,10.83
2019-03-10T19:30:56.950Z,10.80
2019-03-10T19:33:25.935Z,13.93
2019-03-10T19:35:54.958Z,8.00
2019-03-10T19:38:24.027Z,8.10
2019-03-10T19:40:53.088Z,12.50
2019-03-10T19:43:22.242Z,15.07
2019-03-10T19:45:51.388Z,9.07
2019-03-10T19:48:20.411Z,11.77
2019-03-10T19:50:49.458Z,6.23
2019-03-10T19:53:18.503Z,11.90
2019-03-10T19:55:47.640Z,10.93
2019-03-10T19:58:16.682Z,9.00
2019-03-10T20:00:45.796Z,11.03
2019-03-10T20:03:14.944Z,9.60
2019-03-10T20:05:43.997Z,7.40
2019-03-10T20:08:13.001Z,9.43
2019-03-10T20:10:42.036Z,11.87
2019-03-10T20:13:11.086Z,12.13
2019-03-10T20:15:40.320Z,6.47
2019-03-10T20:18:09.367Z,8.77
2019-03-10T20:20:38.525Z,11.43
2019-03-10T20:23:07.600Z,8.27
2019-03-10T20:25:36.706Z,7.60
2019-03-10T20:28:05.862Z,6.80
2019-03-10T20:30:34.902Z,7.73
2019-03-10T20:33:04.035Z,7.90
2019-03-10T20:35:33.188Z,4.73
2019-03-10T20:38:02.357Z,6.13
2019-03-10T20:40:31.401Z,10.83
2019-03-10T20:43:00.379Z,6.77
2019-03-10T20:45:29.494Z,13.13
2019-03-10T20:47:58.678Z,5.60
2019-03-10T20:50:46.890Z,8.23
2019-03-10T20:53:15.955Z,8.30
2019-03-10T20:55:45.068Z,8.97
2019-03-10T20:58:14.174Z,8.07
2019-03-10T21:00:44.544Z,9.87
2019-03-10T21:03:13.645Z,13.00
2019-03-10T21:05:42.718Z,12.63
2019-03-10T21:08:11.741Z,8.43
2019-03-10T21:10:40.747Z,7.33
2019-03-10T21:13:09.719Z,7.17
2019-03-10T21:15:38.766Z,11.33
2019-03-10T21:18:07.935Z,7.43
2019-03-10T21:20:37.056Z,10.50
2019-03-10T21:23:06.142Z,14.80
2019-03-10T21:25:35.233Z,6.63
2019-03-10T21:28:04.262Z,10.50
2019-03-10T21:30:33.312Z,7.73
2019-03-10T21:33:02.349Z,7.63
2019-03-10T21:35:33.366Z,9.13
2019-03-10T21:38:02.231Z,12.37
2019-03-10T21:40:31.377Z,11.20
2019-03-10T21:43:00.474Z,11.60
2019-03-10T21:45:29.529Z,5.47
2019-03-10T21:47:58.590Z,5.53
2019-03-10T21:50:27.657Z,9.20
2019-03-10T21:52:56.730Z,9.67
2019-03-10T21:55:25.823Z,9.50
2019-03-10T21:57:54.788Z,11.37
2019-03-10T22:00:23.883Z,8.10
2019-03-10T22:02:52.934Z,8.00
2019-03-10T22:05:22.011Z,12.73
2019-03-10T22:07:51.084Z,12.97
2019-03-10T22:10:26.849Z,9.97
2019-03-10T22:12:50.814Z,12.93
2019-03-10T22:15:19.856Z,8.53
2019-03-10T22:17:48.872Z,8.53
2019-03-10T22:20:17.903Z,7.17
2019-03-10T22:22:49.840Z,12.70
2019-03-10T22:25:17.938Z,9.37
2019-03-10T22:27:47.121Z,5.73
2019-03-10T22:30:16.573Z,9.00
2019-03-10T22:32:45.663Z,11.40
2019-03-10T22:35:14.730Z,7.73
2019-03-10T22:37:43.867Z,10.13
2019-03-10T22:40:12.953Z,11.63
2019-03-10T22:42:41.974Z,10.23
2019-03-10T22:45:11.621Z,13.57
2019-03-10T22:47:40.664Z,12.03
2019-03-10T22:50:10.526Z,13.10
2019-03-10T22:52:58.770Z,12.87
2019-03-10T22:55:27.825Z,12.50
2019-03-10T22:57:56.879Z,9.97
2019-03-10T23:00:30.144Z,12.23
2019-03-10T23:03:00.319Z,13.17
2019-03-10T23:05:29.343Z,11.73
2019-03-10T23:07:58.357Z,8.80
2019-03-10T23:10:27.370Z,11.60
2019-03-10T23:12:56.390Z,12.03
2019-03-10T23:15:25.513Z,6.77
2019-03-10T23:17:54.519Z,11.20
2019-03-10T23:20:23.561Z,8.73
2019-03-10T23:22:52.704Z,9.30
2019-03-10T23:25:21.874Z,9.40
2019-03-10T23:27:50.993Z,10.53
2019-03-10T23:30:20.073Z,7.57
2019-03-10T23:32:49.096Z,5.63
2019-03-10T23:35:18.111Z,5.83
2019-03-10T23:37:47.174Z,11.30
2019-03-10T23:40:16.263Z,10.20
2019-03-10T23:42:45.437Z,4.53
2019-03-10T23:45:14.512Z,7.23
2019-03-10T23:47:43.593Z,6.57
2019-03-10T23:50:12.837Z,7.00
2019-03-10T23:52:41.882Z,10.23
2019-03-10T23:55:11.067Z,6.07
2019-03-10T23:57:40.166Z,9.00
